Impacts METAR Board
IDs:

KMEM - Memphis Intl, TN, US

Updated at: 2300 UTC 01 Mar 2021
Potential Impact None Slight Moderate High
Time 01/11Z 01/12Z 01/13Z 01/14Z 01/15Z 01/16Z 01/17Z 01/18Z 01/19Z 01/20Z 01/21Z 01/22Z 01/23Z
Temp48 47 45 45 45 45 45 45 45 47 47 47 48
Dewpt40 38 38 38 38 36 35 36 35 35 33 33 30
Altim30.10 30.14 30.16 30.18 30.23 30.25 30.27 30.29 30.28 30.28 30.27 30.28 30.29
VIS10 10 10 10 10 10 10 10 10 10 10 10 10
CIG110 130 150 140 140 150 120 110 120 110 160 180 180
CoverBKNOVCBKNBKNOVCOVCOVCOVCOVCOVCOVCBKNBKN
FltCatVFRVFRVFRVFRVFRVFRVFRVFRVFRVFRVFRVFRVFR
WX--------------------------
WDir1030103601020103601040502030
WSpd14 15 9 7 10 10 8 6 8 7 7 7 8
WGst22 20 -- -- -- -- -- -- -- -- -- -- --
Raw hourly METARs
KMEM 011054Z 01014G22KT 10SM BKN110 09/04 A3010 RMK AO2 RAE01 SLP192 P0001 T00890044 $
KMEM 011154Z 03015G20KT 10SM OVC130 08/03 A3014 RMK AO2 SLP203 60035 70198 T00830033 10144 20083 51030 $
KMEM 011254Z 01009KT 10SM SCT110 BKN150 07/03 A3016 RMK AO2 SLP212 T00720033 $
KMEM 011354Z 36007KT 10SM FEW110 BKN140 BKN250 07/03 A3018 RMK AO2 SLP219 T00720033 $
KMEM 011454Z 01010KT 10SM SCT110 BKN140 OVC250 07/03 A3023 RMK AO2 PRESFR SLP236 T00720033 53031 $
KMEM 011554Z 02010KT 10SM FEW110 BKN150 OVC250 07/02 A3025 RMK AO2 SLP245 T00720022 $
KMEM 011654Z 01008KT 10SM SCT100 BKN120 OVC200 07/02 A3027 RMK AO2 SLP250 T00720017 $
KMEM 011754Z 36006KT 10SM BKN110 BKN130 OVC200 07/02 A3029 RMK AO2 SLP258 T00720022 10083 20067 51021 $
KMEM 011854Z 01008KT 10SM BKN120 OVC200 07/02 A3028 RMK AO2 SLP253 T00720017 $
KMEM 011954Z 04007KT 10SM BKN110 OVC200 08/02 A3028 RMK AO2 SLP253 T00830017 $
KMEM 012054Z 05007KT 10SM SCT110 BKN160 OVC250 08/01 A3027 RMK AO2 SLP249 T00830006 56008 $
KMEM 012154Z 02007KT 10SM SCT120 BKN180 BKN250 08/01 A3028 RMK AO2 SLP254 T00830006 $
KMEM 012254Z 03008KT 10SM SCT120 BKN180 BKN250 09/M01 A3029 RMK AO2 SLP255 T00891011 $



Page loaded:  23:28 UTC  |   03:28 PM Pacific  |   04:28 PM Mountain  |   05:28 PM Central  |   06:28 PM Eastern

 

ADVISORIES

FORECASTS

FORECASTS

OBSERVATIONS

USER TOOLS

ABOUT US